Time;durP1;ratioP1;P1;durP2;ratioP2;P2;SDS_P1;SDS_P2;PMS_P1;PMS_P2;Temp;Humidity;BMP_temperature;BMP_pressure;BME280_temperature;BME280_humidity;BME280_pressure;Samples;Min_cycle;Max_cycle;Signal;HPM_P1;HPM_P2
2022/01/23 00:01:11;;;;;;;13.57;5.72;;;;;;;-1.58;65.74;100145.28;3153801;28;20048;-62
2022/01/23 00:02:42;;;;;;;11.68;6.18;;;;;;;-1.58;65.79;100155.50;3146436;28;20063;-63
2022/01/23 00:04:15;;;;;;;12.30;5.50;;;;;;;-1.58;65.91;100155.50;3150301;28;20117;-63
2022/01/23 00:05:49;;;;;;;11.15;6.13;;;;;;;-1.62;66.28;100155.47;3150416;28;20039;-62
2022/01/23 00:07:21;;;;;;;12.23;5.70;;;;;;;-1.63;66.33;100158.88;3145376;28;20049;-62
2022/01/23 00:08:53;;;;;;;12.95;5.70;;;;;;;-1.60;66.37;100158.03;3152614;28;20056;-63
2022/01/23 00:10:25;;;;;;;13.32;6.40;;;;;;;-1.63;66.60;100152.88;3152544;28;20076;-63
2022/01/23 00:12:03;;;;;;;14.07;6.22;;;;;;;-1.61;66.57;100167.38;3145346;28;20048;-62
2022/01/23 00:13:36;;;;;;;14.93;6.38;;;;;;;-1.62;66.64;100167.38;3152838;28;20044;-64
2022/01/23 00:17:18;;;;;;;12.02;6.47;;;;;;;-2.14;66.98;100110.66;3154729;28;19920;-62
2022/01/23 00:18:50;;;;;;;12.63;6.43;;;;;;;-1.75;67.07;100178.28;3152146;28;20583;-63
2022/01/23 00:20:23;;;;;;;15.02;7.05;;;;;;;-1.79;67.14;100168.91;3145422;28;20448;-63
2022/01/23 00:21:58;;;;;;;16.83;6.80;;;;;;;-1.74;66.99;100175.78;3149386;28;20425;-62
2022/01/23 00:30:17;;;;;;;16.60;6.68;;;;;;;-1.71;66.91;100180.91;3149920;28;20051;-63
2022/01/23 00:30:58;;;;;;;10.40;5.20;;;;;;;-1.79;67.00;100174.84;3153763;28;20041;-64
2022/01/23 00:32:29;;;;;;;9.98;5.13;;;;;;;-1.76;66.99;100174.03;3148006;28;20098;-64
2022/01/23 00:34:01;;;;;;;12.65;5.28;;;;;;;-1.74;66.79;100188.53;3147266;28;20552;-64
2022/01/23 00:35:34;;;;;;;12.52;5.47;;;;;;;-1.75;66.87;100186.81;3155164;28;20047;-64
2022/01/23 00:37:06;;;;;;;11.48;5.60;;;;;;;-1.75;66.63;100180.84;3157167;28;20052;-64
2022/01/23 00:38:38;;;;;;;11.95;5.28;;;;;;;-1.74;66.77;100183.44;3152625;28;20110;-64
2022/01/23 00:40:11;;;;;;;10.85;5.43;;;;;;;-1.71;66.49;100190.28;3154659;28;20044;-64
2022/01/23 00:41:43;;;;;;;11.57;5.00;;;;;;;-1.73;66.51;100187.69;3145081;28;20586;-64
2022/01/23 00:43:26;;;;;;;11.23;6.03;;;;;;;-1.80;66.42;100183.38;3150229;28;20052;-63
2022/01/23 00:45:10;;;;;;;10.90;5.70;;;;;;;-1.77;66.26;100198.72;3151695;28;20040;-64
2022/01/23 00:46:49;;;;;;;9.48;4.88;;;;;;;-1.79;66.40;100195.28;3147488;28;20056;-65
2022/01/23 00:48:26;;;;;;;11.75;5.50;;;;;;;-1.78;66.34;100196.97;3154163;28;20044;-64
2022/01/23 00:49:56;;;;;;;9.07;4.25;;;;;;;-1.77;65.90;100193.63;3145639;28;20083;-64
2022/01/23 00:51:32;;;;;;;9.98;4.80;;;;;;;-1.75;65.72;100202.13;3150376;28;20153;-64
2022/01/23 00:53:08;;;;;;;11.50;4.45;;;;;;;-1.72;65.55;100204.72;3156610;28;20044;-64
2022/01/23 00:54:40;;;;;;;12.63;4.43;;;;;;;-1.73;65.41;100195.34;3144844;28;20161;-64
2022/01/23 00:56:12;;;;;;;9.25;4.60;;;;;;;-1.71;65.15;100198.78;3149429;28;20108;-63
2022/01/23 00:57:44;;;;;;;9.43;4.93;;;;;;;-1.68;65.02;100193.72;3151434;28;20125;-64
2022/01/23 00:59:17;;;;;;;12.50;5.65;;;;;;;-1.69;64.68;100197.09;3144300;28;20505;-64
2022/01/23 01:00:49;;;;;;;10.48;4.70;;;;;;;-1.71;64.68;100197.94;3153357;28;20052;-64
2022/01/23 01:02:20;;;;;;;10.07;4.90;;;;;;;-1.71;64.29;100193.69;3149190;28;20045;-64
2022/01/23 01:03:53;;;;;;;8.77;4.55;;;;;;;-1.69;64.23;100196.22;3145701;28;20048;-64
2022/01/23 01:05:26;;;;;;;10.65;4.88;;;;;;;-1.71;64.09;100198.78;3151918;28;20064;-64
2022/01/23 01:06:58;;;;;;;8.77;4.18;;;;;;;-1.78;63.94;100193.59;3146126;28;20055;-63
2022/01/23 01:08:30;;;;;;;8.88;4.18;;;;;;;-1.73;63.84;100202.16;3147561;28;20047;-64
2022/01/23 01:10:08;;;;;;;13.95;4.88;;;;;;;-1.74;63.74;100208.97;3155299;28;20079;-64
2022/01/23 01:11:56;;;;;;;9.00;4.43;;;;;;;-1.75;63.63;100206.38;3144904;28;20449;-64
2022/01/23 01:13:40;;;;;;;10.40;4.72;;;;;;;-1.79;63.65;100207.19;3152197;28;20098;-64
2022/01/23 01:15:39;;;;;;;9.98;5.05;;;;;;;-1.79;63.49;100215.72;3149056;28;20059;-63
2022/01/23 01:17:18;;;;;;;10.07;4.50;;;;;;;-1.87;63.43;100219.84;3147470;28;20052;-63
2022/01/23 01:31:41;;;;;;;8.35;3.92;;;;;;;-2.00;63.14;100210.34;3152125;28;20076;-64
2022/01/23 01:33:22;;;;;;;12.50;5.30;;;;;;;-1.99;62.94;100201.84;3144478;28;20056;-62
2022/01/23 01:35:04;;;;;;;9.88;4.57;;;;;;;-2.04;62.79;100201.81;3152703;28;20440;-62
2022/01/23 01:36:45;;;;;;;10.45;4.50;;;;;;;-2.28;62.62;100164.06;3149194;28;20101;-62
2022/01/23 01:38:16;;;;;;;9.07;4.13;;;;;;;-2.01;62.38;100209.50;3152611;28;20056;-64
2022/01/23 01:39:48;;;;;;;7.70;3.58;;;;;;;-2.02;62.12;100206.91;3153280;28;20056;-64
2022/01/23 01:41:20;;;;;;;8.88;3.38;;;;;;;-2.01;61.96;100212.06;3147271;28;20638;-64
2022/01/23 01:42:52;;;;;;;6.45;3.42;;;;;;;-2.01;62.07;100211.16;3147969;28;20047;-62
2022/01/23 01:44:25;;;;;;;8.38;3.90;;;;;;;-1.96;61.82;100214.66;3154190;28;20036;-63
2022/01/23 01:45:57;;;;;;;6.75;3.38;;;;;;;-1.98;61.58;100218.88;3144302;28;20091;-63
2022/01/23 01:47:30;;;;;;;8.90;3.70;;;;;;;-1.96;61.58;100217.19;3147996;28;20062;-63
2022/01/23 01:49:02;;;;;;;7.00;3.47;;;;;;;-1.96;61.25;100215.50;3152397;28;20048;-62
2022/01/23 01:50:35;;;;;;;7.85;3.78;;;;;;;-1.91;61.16;100221.53;3147461;28;20130;-62
2022/01/23 01:52:08;;;;;;;8.90;4.15;;;;;;;-1.93;61.05;100225.75;3150350;28;20121;-63
2022/01/23 01:53:43;;;;;;;10.80;4.40;;;;;;;-1.90;60.86;100227.47;3149525;28;20082;-62
2022/01/23 01:55:23;;;;;;;7.80;3.75;;;;;;;-1.87;60.99;100227.50;3147508;28;20061;-63
2022/01/23 01:57:05;;;;;;;8.02;3.67;;;;;;;-1.84;60.96;100227.56;3152550;28;20044;-62
2022/01/23 02:00:40;;;;;;;8.63;3.63;;;;;;;-1.81;60.62;100232.69;3149517;28;20210;-63
2022/01/23 02:09:41;;;;;;;7.40;3.42;;;;;;;-1.77;59.85;100213.19;3153893;28;20079;-64
2022/01/23 02:11:18;;;;;;;7.28;3.55;;;;;;;-1.76;59.54;100217.44;3149849;28;20054;-64
2022/01/23 02:13:06;;;;;;;7.85;3.55;;;;;;;-1.73;59.30;100218.31;3147554;28;20056;-62
2022/01/23 02:14:46;;;;;;;11.55;4.43;;;;;;;-1.75;59.33;100208.94;3155636;28;20389;-62
2022/01/23 02:16:39;;;;;;;8.75;4.30;;;;;;;-1.75;59.16;100207.22;3147021;28;20444;-62
2022/01/23 02:18:43;;;;;;;9.95;4.45;;;;;;;-1.78;59.25;100209.75;3153441;28;20053;-62
2022/01/23 02:22:35;;;;;;;9.07;4.45;;;;;;;-1.82;59.19;100202.91;3152182;28;20052;-62
2022/01/23 02:51:56;;;;;;;8.50;3.80;;;;;;;-2.01;59.00;100214.59;3151869;28;20041;-63
2022/01/23 02:53:38;;;;;;;9.00;3.75;;;;;;;-2.03;59.00;100216.28;3154665;28;20079;-64
2022/01/23 02:55:13;;;;;;;10.57;4.75;;;;;;;-2.04;59.10;100216.25;3149050;28;20091;-64
2022/01/23 02:56:46;;;;;;;11.25;5.03;;;;;;;-2.06;58.88;100214.53;3153839;28;20810;-64
2022/01/23 02:58:21;;;;;;;13.85;5.20;;;;;;;-2.35;58.82;100175.03;3151767;28;20055;-64
2022/01/23 02:59:54;;;;;;;12.77;4.32;;;;;;;-2.05;58.82;100217.94;3146524;28;20077;-64
2022/01/23 03:01:30;;;;;;;9.60;4.30;;;;;;;-2.34;58.80;100175.06;3153559;28;20080;-64
2022/01/23 03:03:05;;;;;;;9.68;4.40;;;;;;;-2.04;58.75;100223.91;3149488;28;20052;-64
2022/01/23 03:04:41;;;;;;;9.27;4.43;;;;;;;-2.04;58.78;100218.78;3148730;28;20049;-64
2022/01/23 03:06:35;;;;;;;9.82;4.35;;;;;;;-2.15;58.76;100211.88;3155733;28;20059;-64
2022/01/23 03:08:23;;;;;;;12.18;5.00;;;;;;;-2.20;58.65;100210.09;3146389;28;20561;-64
2022/01/23 03:09:59;;;;;;;11.80;5.00;;;;;;;-2.15;58.84;100227.19;3153052;28;20058;-64
2022/01/23 03:11:54;;;;;;;9.05;4.20;;;;;;;-2.14;58.66;100228.88;3150086;28;20048;-64
2022/01/23 03:13:42;;;;;;;11.77;5.38;;;;;;;-2.15;58.79;100232.28;3149888;28;20063;-64
2022/01/23 03:15:22;;;;;;;11.18;4.35;;;;;;;-2.15;58.65;100233.97;3151701;28;20044;-64
2022/01/23 03:24:30;;;;;;;11.90;4.00;;;;;;;-2.18;58.57;100224.59;3138993;28;20094;-63
2022/01/23 03:26:15;;;;;;;7.60;4.10;;;;;;;-2.17;58.63;100233.09;3147040;28;20048;-63
2022/01/23 03:28:15;;;;;;;7.95;3.85;;;;;;;-2.15;58.46;100239.94;3156057;28;20074;-63
2022/01/23 03:29:55;;;;;;;13.00;5.10;;;;;;;-2.17;58.46;100230.53;3145757;28;20478;-63
2022/01/23 03:31:30;;;;;;;9.75;3.80;;;;;;;-2.15;58.36;100237.38;3151684;28;20047;-63
2022/01/23 03:33:02;;;;;;;9.90;3.70;;;;;;;-2.12;58.28;100236.56;3151105;28;20049;-63
2022/01/23 03:34:34;;;;;;;7.50;3.90;;;;;;;-2.11;58.27;100244.22;3148018;28;20111;-63
2022/01/23 03:36:06;;;;;;;9.50;3.78;;;;;;;-2.11;58.04;100238.28;3156366;28;20102;-63
2022/01/23 03:37:38;;;;;;;7.20;3.47;;;;;;;-2.11;57.96;100239.13;3146584;28;20048;-63
2022/01/23 03:39:12;;;;;;;8.38;3.60;;;;;;;-2.11;57.70;100239.13;3149098;28;20044;-63
2022/01/23 03:40:44;;;;;;;9.82;4.40;;;;;;;-2.11;57.86;100235.72;3154531;28;20443;-63
2022/01/23 03:42:16;;;;;;;8.27;3.50;;;;;;;-2.09;57.79;100239.16;3145611;28;20110;-63
2022/01/23 03:43:48;;;;;;;9.57;3.88;;;;;;;-2.10;57.76;100234.88;3152081;28;20407;-63
2022/01/23 03:45:43;;;;;;;8.23;3.85;;;;;;;-2.10;57.66;100239.97;3153591;28;20044;-63
2022/01/23 03:47:21;;;;;;;12.25;4.03;;;;;;;-2.13;57.77;100240.81;3147870;28;20052;-63
2022/01/23 03:50:45;;;;;;;10.63;3.10;;;;;;;-2.12;57.75;100247.63;3145743;28;20079;-63
2022/01/23 03:52:17;;;;;;;7.85;3.70;;;;;;;-2.12;57.74;100236.56;3149835;28;20054;-63
2022/01/23 03:53:48;;;;;;;11.10;3.75;;;;;;;-2.09;57.59;100244.25;3155446;28;20072;-63
2022/01/23 03:55:21;;;;;;;7.97;3.40;;;;;;;-2.09;57.53;100247.66;3158010;28;20052;-63
2022/01/23 03:56:53;;;;;;;12.15;4.40;;;;;;;-2.13;57.57;100248.47;3154657;28;20062;-63
2022/01/23 03:58:25;;;;;;;8.73;3.80;;;;;;;-2.12;57.55;100245.09;3151836;28;20458;-63
2022/01/23 03:59:57;;;;;;;8.43;3.20;;;;;;;-2.10;57.49;100251.06;3145728;28;20574;-63
2022/01/23 04:01:28;;;;;;;7.82;3.15;;;;;;;-2.10;57.45;100256.19;3152321;28;20048;-63
2022/01/23 04:03:00;;;;;;;9.90;3.92;;;;;;;-2.10;57.34;100250.19;3150127;28;20053;-63
2022/01/23 04:04:39;;;;;;;7.72;3.63;;;;;;;-2.09;57.28;100252.78;3146224;28;20061;-63
2022/01/23 04:06:11;;;;;;;8.15;3.00;;;;;;;-2.10;57.29;100251.06;3154741;28;20127;-63
2022/01/23 04:07:43;;;;;;;9.70;3.72;;;;;;;-2.19;57.13;100235.66;3146353;28;20052;-63
2022/01/23 04:09:14;;;;;;;10.82;3.70;;;;;;;-2.07;57.13;100256.22;3149731;28;20088;-63
2022/01/23 04:10:48;;;;;;;6.82;3.20;;;;;;;-2.06;57.05;100245.16;3155949;28;20055;-63
2022/01/23 04:12:34;;;;;;;8.05;3.35;;;;;;;-2.06;56.98;100252.81;3147390;28;20126;-63
2022/01/23 04:14:08;;;;;;;8.73;3.42;;;;;;;-2.12;57.08;100245.09;3152503;28;20054;-63
2022/01/23 04:15:46;;;;;;;7.88;3.13;;;;;;;-2.07;56.96;100256.22;3153526;28;20100;-64
2022/01/23 04:19:39;;;;;;;7.30;3.03;;;;;;;-2.09;57.14;100257.03;3155638;28;20055;-64
2022/01/23 04:31:38;;;;;;;8.07;3.75;;;;;;;-2.11;57.15;100259.53;3145456;28;20075;-64
2022/01/23 04:32:39;;;;;;;11.43;3.40;;;;;;;-2.08;57.11;100268.94;3153752;28;20470;-64
2022/01/23 04:34:19;;;;;;;10.57;3.80;;;;;;;-2.08;57.04;100264.69;3144216;28;20131;-64
2022/01/23 04:45:22;;;;;;;14.18;5.38;;;;;;;-1.95;57.27;100281.03;3154288;28;20048;-64
2022/01/23 04:47:33;;;;;;;11.68;5.22;;;;;;;-1.95;57.20;100286.16;3145204;28;20121;-63
2022/01/23 04:59:32;;;;;;;11.02;4.38;;;;;;;-1.96;57.11;100275.91;3153307;28;20052;-64
2022/01/23 05:00:20;;;;;;;6.63;3.65;;;;;;;-1.69;56.84;100291.56;3145466;28;20418;-63
2022/01/23 05:02:08;;;;;;;6.90;3.47;;;;;;;-1.64;56.72;100291.63;3150284;28;20105;-63
2022/01/23 05:04:07;;;;;;;7.57;3.70;;;;;;;-1.66;56.62;100293.28;3145765;28;20049;-63
2022/01/23 05:05:39;;;;;;;7.38;2.78;;;;;;;-1.61;56.56;100301.88;3152737;28;20496;-63
2022/01/23 05:07:13;;;;;;;9.90;3.45;;;;;;;-1.56;56.37;100309.63;3150770;28;20509;-64
2022/01/23 05:08:44;;;;;;;7.60;3.42;;;;;;;-1.53;56.35;100297.72;3144670;28;20087;-64
2022/01/23 05:10:16;;;;;;;6.65;2.83;;;;;;;-1.50;56.25;100305.44;3149959;28;20044;-64
2022/01/23 05:11:50;;;;;;;7.20;3.28;;;;;;;-1.50;55.90;100302.03;3148571;28;20418;-64
2022/01/23 05:13:21;;;;;;;9.27;3.05;;;;;;;-1.50;56.07;100309.69;3147135;28;20057;-64
2022/01/23 05:14:54;;;;;;;6.30;3.13;;;;;;;-1.50;55.89;100297.75;3154069;28;20441;-64
2022/01/23 05:16:26;;;;;;;;;;;;;;;-1.70;55.98;100305.19;3145923;28;20406;-63
2022/01/23 05:17:57;;;;;;;9.57;2.40;;;;;;;-1.65;56.34;100305.25;3146279;28;19924;-63
2022/01/23 05:19:30;;;;;;;7.22;2.90;;;;;;;-1.61;56.24;100317.22;3152723;28;20105;-63
2022/01/23 05:21:12;;;;;;;6.50;3.20;;;;;;;-1.58;56.08;100322.34;3146797;28;20113;-63
2022/01/23 05:22:46;;;;;;;6.57;2.73;;;;;;;-1.61;56.08;100324.88;3150668;28;20043;-63
2022/01/23 05:24:23;;;;;;;6.47;2.65;;;;;;;-1.59;55.95;100332.56;3152417;28;20389;-63
2022/01/23 05:25:55;;;;;;;6.30;2.97;;;;;;;-1.60;55.98;100334.22;3145063;28;20045;-63
2022/01/23 05:27:29;;;;;;;8.52;3.03;;;;;;;-1.64;55.99;100330.78;3151811;28;20044;-62
2022/01/23 05:29:00;;;;;;;7.32;3.25;;;;;;;-1.63;56.02;100335.06;3147899;28;20071;-63
2022/01/23 05:30:35;;;;;;;6.63;3.20;;;;;;;-1.63;55.96;100324.88;3147110;28;20088;-62
2022/01/23 05:32:10;;;;;;;7.38;3.10;;;;;;;-1.64;55.94;100324.81;3153621;28;20060;-62
2022/01/23 05:33:40;;;;;;;6.85;2.97;;;;;;;-1.64;55.97;100324.81;3146619;28;20045;-62
2022/01/23 05:35:14;;;;;;;4.95;2.80;;;;;;;-1.68;56.01;100323.94;3144145;28;20574;-62
2022/01/23 05:36:45;;;;;;;9.80;4.25;;;;;;;-1.69;56.03;100326.47;3154473;28;20048;-62
2022/01/23 05:38:17;;;;;;;9.63;3.60;;;;;;;-1.92;55.94;100285.34;3147219;28;20052;-62
2022/01/23 05:39:49;;;;;;;9.43;3.50;;;;;;;-1.69;55.96;100324.75;3150543;28;20044;-63
2022/01/23 05:41:21;;;;;;;7.10;3.60;;;;;;;-1.67;55.95;100324.78;3152352;28;20065;-62
2022/01/23 05:42:53;;;;;;;7.38;3.80;;;;;;;-1.87;55.78;100289.63;3144297;28;20072;-63
2022/01/23 05:44:25;;;;;;;9.13;3.90;;;;;;;-1.64;55.87;100332.50;3150645;28;20120;-63
2022/01/23 05:45:58;;;;;;;8.60;3.70;;;;;;;-1.63;55.78;100324.88;3150752;28;20418;-63
2022/01/23 05:47:30;;;;;;;10.02;3.53;;;;;;;-1.62;55.84;100328.28;3144528;28;20052;-63
2022/01/23 05:49:02;;;;;;;9.98;3.95;;;;;;;-1.59;55.79;100330.00;3152604;28;20048;-63
2022/01/23 05:50:34;;;;;;;10.00;3.80;;;;;;;-1.55;55.79;100331.75;3150193;28;20568;-63
2022/01/23 05:52:06;;;;;;;14.18;6.95;;;;;;;-1.51;55.79;100328.38;3144649;28;20106;-63
2022/01/23 05:53:38;;;;;;;12.80;5.57;;;;;;;-1.89;55.56;100265.81;3153640;28;20055;-66
2022/01/23 05:55:11;;;;;;;13.80;4.65;;;;;;;-1.44;55.54;100335.31;3146715;28;20424;-62
2022/01/23 05:56:43;;;;;;;8.18;3.88;;;;;;;-1.43;55.36;100337.00;3146267;28;20102;-63
2022/01/23 05:58:15;;;;;;;8.38;4.00;;;;;;;-1.39;55.39;100333.63;3154468;28;20044;-63
2022/01/23 05:59:47;;;;;;;14.02;4.88;;;;;;;-1.36;55.23;100336.25;3144336;28;20053;-63
2022/01/23 06:01:21;;;;;;;10.13;3.90;;;;;;;-1.29;55.22;100340.59;3148240;28;20056;-63
2022/01/23 06:02:52;;;;;;;;;;;;;;;-1.44;55.50;100342.97;3151933;28;20056;-63
2022/01/23 06:04:25;;;;;;;9.52;3.80;;;;;;;-1.34;55.59;100346.47;3144401;28;19924;-63
2022/01/23 06:05:57;;;;;;;9.57;4.47;;;;;;;-1.27;55.40;100346.56;3152537;28;20151;-63
2022/01/23 06:07:29;;;;;;;7.85;3.83;;;;;;;-1.20;55.36;100348.34;3152587;28;20077;-64
2022/01/23 06:09:01;;;;;;;10.75;4.43;;;;;;;-1.10;55.07;100349.31;3144053;28;20159;-64
2022/01/23 06:10:46;;;;;;;10.48;4.43;;;;;;;-1.03;54.86;100352.81;3151643;28;20056;-63
2022/01/23 06:12:19;;;;;;;8.68;4.38;;;;;;;-1.01;54.85;100340.88;3149341;28;20629;-64
2022/01/23 06:13:51;;;;;;;9.27;3.88;;;;;;;-0.94;54.61;100353.75;3155989;28;20532;-63
2022/01/23 06:15:23;;;;;;;11.80;4.78;;;;;;;-1.22;54.46;100286.13;3151846;28;20067;-63
2022/01/23 06:16:56;;;;;;;12.15;4.32;;;;;;;-0.79;54.51;100342.81;3144260;28;20052;-63
2022/01/23 06:18:28;;;;;;;7.10;3.97;;;;;;;-0.72;54.12;100347.13;3149571;28;20570;-63
2022/01/23 06:20:01;;;;;;;8.25;4.18;;;;;;;-0.65;54.08;100348.06;3151889;28;20113;-63
2022/01/23 06:21:33;;;;;;;7.68;4.18;;;;;;;-0.56;54.04;100344.72;3147207;28;20071;-63
2022/01/23 06:23:05;;;;;;;9.40;4.47;;;;;;;-0.51;54.00;100345.63;3151908;28;20059;-63
2022/01/23 06:24:44;;;;;;;8.85;4.50;;;;;;;-0.43;53.80;100351.66;3152374;28;20044;-61
2022/01/23 06:26:17;;;;;;;12.40;4.65;;;;;;;-0.37;53.72;100354.28;3144238;28;20045;-60
2022/01/23 06:27:49;;;;;;;12.48;4.95;;;;;;;-0.30;53.46;100355.16;3152242;28;20469;-60
2022/01/23 06:29:22;;;;;;;14.32;6.90;;;;;;;-0.22;53.50;100356.09;3146712;28;20060;-60
2022/01/23 06:30:54;;;;;;;10.80;4.47;;;;;;;-0.18;53.29;100367.19;3146138;28;20054;-61
2022/01/23 06:32:27;;;;;;;6.85;3.80;;;;;;;-0.08;53.08;100366.44;3150849;28;20056;-61
2022/01/23 06:34:01;;;;;;;10.50;4.00;;;;;;;-0.01;53.03;100366.47;3145735;28;20510;-61
2022/01/23 06:35:35;;;;;;;10.18;4.30;;;;;;;-0.02;53.05;100349.41;3149434;28;20052;-61
2022/01/23 06:37:07;;;;;;;11.02;4.45;;;;;;;0.24;52.76;100361.53;3153321;28;20055;-61
2022/01/23 06:38:38;;;;;;;8.30;3.80;;;;;;;0.37;52.38;100359.88;3143693;28;20102;-62
2022/01/23 06:40:11;;;;;;;7.38;3.65;;;;;;;0.53;52.04;100366.78;3148951;28;20565;-62
2022/01/23 06:41:43;;;;;;;7.40;3.80;;;;;;;0.70;52.19;100360.88;3155798;28;20048;-65
2022/01/23 06:43:15;;;;;;;9.32;3.50;;;;;;;0.92;52.23;100362.69;3147209;28;20048;-65
2022/01/23 06:44:47;;;;;;;8.15;3.78;;;;;;;1.20;51.68;100362.75;3150873;28;20044;-65
2022/01/23 06:46:19;;;;;;;11.27;3.67;;;;;;;1.43;51.74;100352.53;3148805;28;20110;-65
2022/01/23 06:47:52;;;;;;;8.35;3.70;;;;;;;1.76;51.02;100364.50;3145073;28;20153;-65
2022/01/23 06:49:24;;;;;;;8.70;4.22;;;;;;;1.97;50.88;100359.34;3151910;28;20543;-65
2022/01/23 06:50:56;;;;;;;7.68;3.90;;;;;;;2.18;50.05;100357.59;3147492;28;20048;-65
2022/01/23 06:52:28;;;;;;;15.32;4.65;;;;;;;2.23;49.56;100356.75;3145242;28;20142;-65
2022/01/23 06:54:00;;;;;;;9.93;6.47;;;;;;;2.24;49.10;100357.59;3153718;28;20507;-65
2022/01/23 06:55:32;;;;;;;7.97;4.25;;;;;;;2.24;49.01;100348.16;3145018;28;20048;-65
2022/01/23 06:57:04;;;;;;;9.43;4.00;;;;;;;2.22;48.50;100352.47;3148753;28;20063;-65
2022/01/23 06:58:36;;;;;;;8.00;4.20;;;;;;;2.20;48.16;100345.63;3154575;28;20491;-65
2022/01/23 07:00:09;;;;;;;7.18;3.97;;;;;;;2.22;48.05;100343.91;3152679;28;20090;-65
2022/01/23 07:01:41;;;;;;;8.75;4.18;;;;;;;2.16;48.08;100349.91;3148355;28;20051;-63
2022/01/23 07:03:14;;;;;;;9.90;4.35;;;;;;;2.10;47.59;100349.06;3152989;28;20048;-64
2022/01/23 07:04:46;;;;;;;11.45;4.38;;;;;;;1.98;47.46;100352.50;3151853;28;20051;-64
2022/01/23 07:06:18;;;;;;;9.25;3.88;;;;;;;1.93;47.52;100349.09;3152533;28;20117;-69
2022/01/23 07:07:50;;;;;;;10.55;4.53;;;;;;;1.93;47.49;100351.66;3150856;28;20048;-66
2022/01/23 07:09:22;;;;;;;8.75;4.20;;;;;;;1.93;47.31;100355.09;3147298;28;20078;-65
2022/01/23 07:10:54;;;;;;;10.20;4.45;;;;;;;1.88;46.99;100349.09;3154203;28;20098;-65
2022/01/23 07:12:26;;;;;;;10.05;4.53;;;;;;;1.80;47.16;100346.53;3149009;28;20412;-65
2022/01/23 07:13:58;;;;;;;13.20;4.72;;;;;;;1.76;47.00;100346.53;3149467;28;20087;-65
2022/01/23 07:15:29;;;;;;;10.73;4.50;;;;;;;1.70;46.99;100342.25;3154046;28;20052;-64
2022/01/23 07:17:01;;;;;;;10.45;3.83;;;;;;;1.56;47.27;100337.09;3147132;28;20055;-65
2022/01/23 07:18:35;;;;;;;9.43;5.28;;;;;;;1.59;47.15;100349.09;3149120;28;20052;-65
2022/01/23 07:20:07;;;;;;;;;;;;;;;1.36;47.44;100355.09;3151945;28;20162;-65
2022/01/23 07:21:39;;;;;;;12.65;5.80;;;;;;;1.43;47.33;100355.94;3146017;28;19994;-65
2022/01/23 07:23:11;;;;;;;7.90;4.10;;;;;;;1.43;47.07;100349.97;3151520;28;20127;-64
2022/01/23 07:24:43;;;;;;;8.10;4.45;;;;;;;1.37;47.18;100363.63;3154255;28;20058;-61
2022/01/23 07:26:18;;;;;;;8.98;4.50;;;;;;;1.31;47.03;100350.81;3146087;28;20049;-61
2022/01/23 07:27:53;;;;;;;9.15;4.47;;;;;;;1.30;47.56;100359.34;3153738;28;20044;-61
2022/01/23 07:29:25;;;;;;;13.18;4.00;;;;;;;1.32;47.29;100365.34;3151129;28;20072;-61
2022/01/23 07:31:02;;;;;;;9.88;4.28;;;;;;;1.32;47.41;100367.91;3148622;28;20184;-62
2022/01/23 07:32:34;;;;;;;11.38;4.13;;;;;;;1.34;47.44;100368.75;3154257;28;20188;-62
2022/01/23 07:34:10;;;;;;;11.52;4.20;;;;;;;1.35;47.34;100373.88;3148004;28;20477;-62
2022/01/23 07:35:42;;;;;;;7.78;3.53;;;;;;;1.30;47.27;100373.03;3149895;28;20051;-61
2022/01/23 07:37:15;;;;;;;10.07;4.20;;;;;;;1.29;47.16;100383.28;3150463;28;20550;-61
2022/01/23 07:38:46;;;;;;;11.40;4.22;;;;;;;1.27;47.39;100369.59;3148128;28;20117;-62
2022/01/23 07:40:19;;;;;;;10.55;4.55;;;;;;;1.31;47.20;100377.31;3149670;28;20573;-63
2022/01/23 07:41:51;;;;;;;11.32;5.07;;;;;;;1.25;47.07;100373.88;3148736;28;20472;-65
2022/01/23 07:43:23;;;;;;;23.60;9.60;;;;;;;1.04;47.22;100352.47;3150177;28;20052;-65
2022/01/23 07:44:55;;;;;;;15.02;6.57;;;;;;;1.24;47.32;100378.16;3146974;28;20519;-65
2022/01/23 07:46:27;;;;;;;11.23;4.82;;;;;;;1.25;47.24;100381.59;3149211;28;20048;-65
2022/01/23 07:47:59;;;;;;;14.68;6.05;;;;;;;1.26;47.26;100380.72;3150467;28;20085;-65
2022/01/23 07:49:32;;;;;;;11.75;6.07;;;;;;;1.33;47.24;100382.44;3149801;28;20044;-64
2022/01/23 07:51:04;;;;;;;10.93;4.65;;;;;;;1.32;47.39;100373.03;3151967;28;20448;-63
2022/01/23 07:52:37;;;;;;;10.10;4.72;;;;;;;1.38;47.14;100370.47;3149721;28;20052;-63
2022/01/23 07:54:09;;;;;;;9.43;4.78;;;;;;;1.41;46.94;100378.16;3151726;28;20086;-65
2022/01/23 07:55:41;;;;;;;11.35;4.38;;;;;;;1.45;47.06;100379.03;3148277;28;20071;-64
2022/01/23 07:57:13;;;;;;;13.65;5.07;;;;;;;1.48;46.89;100369.66;3150575;28;20444;-64
2022/01/23 07:58:45;;;;;;;10.27;4.60;;;;;;;1.52;46.80;100380.75;3148597;28;20493;-64
2022/01/23 08:00:17;;;;;;;10.90;4.82;;;;;;;1.55;46.79;100379.06;3148069;28;20159;-64
2022/01/23 08:01:49;;;;;;;16.33;5.60;;;;;;;1.59;46.68;100385.03;3149630;28;20118;-64
2022/01/23 08:03:21;;;;;;;21.80;7.65;;;;;;;1.63;46.60;100363.66;3148604;28;20907;-64
2022/01/23 08:04:57;;;;;;;13.68;6.78;;;;;;;1.69;46.31;100370.50;3145512;28;20125;-64
2022/01/23 08:06:32;;;;;;;14.18;5.93;;;;;;;1.68;46.27;100367.06;3140932;28;20044;-64
2022/01/23 08:08:04;;;;;;;11.52;5.43;;;;;;;1.73;46.21;100367.94;3138663;28;20082;-65
2022/01/23 08:09:36;;;;;;;10.55;4.82;;;;;;;1.76;46.15;100367.06;3137257;28;20080;-64
2022/01/23 08:11:09;;;;;;;14.98;5.97;;;;;;;1.84;46.14;100367.09;3141354;28;20439;-64
2022/01/23 08:12:41;;;;;;;13.63;5.75;;;;;;;1.88;45.81;100364.50;3138023;28;20106;-64
2022/01/23 08:14:13;;;;;;;14.98;5.50;;;;;;;1.91;45.90;100355.94;3140643;28;20117;-64
2022/01/23 08:15:45;;;;;;;15.68;5.97;;;;;;;1.94;45.88;100359.34;3139611;28;20356;-64
2022/01/23 08:17:19;;;;;;;12.85;5.78;;;;;;;1.65;45.66;100309.72;3138740;28;20062;-63
2022/01/23 08:18:51;;;;;;;13.00;5.93;;;;;;;1.99;45.46;100365.34;3137690;28;20856;-66
2022/01/23 08:20:24;;;;;;;9.05;4.00;;;;;;;2.00;45.26;100350.78;3138390;28;20086;-65
2022/01/23 08:21:56;;;;;;;;;;;;;;;1.78;45.61;100348.25;3140266;28;20052;-64
2022/01/23 08:23:27;;;;;;;13.85;4.80;;;;;;;1.80;45.62;100337.97;3139761;28;20336;-64
2022/01/23 08:25:01;;;;;;;14.38;5.95;;;;;;;1.87;45.29;100352.53;3142753;28;20044;-64
2022/01/23 08:26:33;;;;;;;11.15;5.45;;;;;;;1.89;45.43;100348.22;3143164;28;20500;-63
2022/01/23 08:28:07;;;;;;;17.30;7.10;;;;;;;1.95;45.15;100343.09;3139733;28;20476;-63
2022/01/23 08:29:39;;;;;;;16.08;6.00;;;;;;;2.03;45.17;100343.06;3146424;28;20120;-63
2022/01/23 08:31:11;;;;;;;19.45;7.85;;;;;;;2.13;45.01;100346.47;3140906;28;20544;-63
2022/01/23 08:32:43;;;;;;;13.93;5.72;;;;;;;2.22;44.91;100360.19;3138608;28;20056;-64
2022/01/23 08:34:15;;;;;;;10.23;4.57;;;;;;;2.29;44.59;100353.31;3137747;28;20534;-63
2022/01/23 08:35:49;;;;;;;9.93;4.82;;;;;;;2.35;44.40;100347.28;3137730;28;20045;-63
2022/01/23 08:37:21;;;;;;;;;;;;;;;2.21;44.60;100349.88;3141765;28;20135;-63
2022/01/23 08:38:53;;;;;;;12.25;4.18;;;;;;;2.31;44.42;100356.72;3149149;28;20019;-63
2022/01/23 08:40:45;;;;;;;12.43;5.72;;;;;;;2.41;44.19;100352.41;3143773;28;20579;-64
2022/01/23 08:42:17;;;;;;;12.20;5.68;;;;;;;2.49;44.07;100354.09;3141556;28;20052;-63
2022/01/23 08:43:49;;;;;;;22.58;7.32;;;;;;;2.61;43.82;100348.06;3141912;28;20056;-63
2022/01/23 08:45:21;;;;;;;20.25;6.95;;;;;;;2.81;43.49;100352.25;3136221;28;20087;-63
2022/01/23 08:46:54;;;;;;;15.30;7.57;;;;;;;2.92;42.92;100343.63;3138210;28;20434;-63
2022/01/23 08:48:26;;;;;;;9.85;4.53;;;;;;;3.05;42.83;100336.72;3136682;28;20596;-63
2022/01/23 08:49:58;;;;;;;9.20;3.67;;;;;;;3.12;42.56;100340.09;3140624;28;20076;-63
2022/01/23 08:51:31;;;;;;;8.18;3.80;;;;;;;3.15;42.26;100335.78;3139324;28;20060;-63
2022/01/23 08:53:04;;;;;;;8.93;3.72;;;;;;;2.90;41.87;100293.06;3141740;28;20121;-63
2022/01/23 08:54:35;;;;;;;8.70;3.92;;;;;;;3.10;41.87;100337.50;3139207;28;20044;-63
2022/01/23 08:56:08;;;;;;;8.93;3.90;;;;;;;3.13;41.87;100331.50;3138248;28;20049;-64
2022/01/23 08:57:40;;;;;;;12.15;4.22;;;;;;;3.13;41.71;100331.50;3137252;28;20056;-64
2022/01/23 08:59:12;;;;;;;9.00;4.00;;;;;;;3.14;41.75;100335.78;3140721;28;20959;-62
2022/01/23 09:00:44;;;;;;;8.88;4.38;;;;;;;3.19;41.60;100326.31;3140574;28;20302;-63